Time;durP1;ratioP1;P1;durP2;ratioP2;P2;SDS_P1;SDS_P2;PMS_P1;PMS_P2;Temp;Humidity;BMP_temperature;BMP_pressure;BME280_temperature;BME280_humidity;BME280_pressure;Samples;Min_cycle;Max_cycle;Signal;HPM_P1;HPM_P2
2023/09/30 00:02:04;;;;;;;;;;;;;;;-145.06;100.00;60892.56;4896619;28;20012;-92
2023/09/30 00:04:43;;;;;;;;;;;;;;;-145.06;100.00;60892.56;4896087;28;19917;-90
2023/09/30 00:07:22;;;;;;;;;;;;;;;-145.06;100.00;60892.56;4897222;28;19916;-91
2023/09/30 00:10:03;;;;;;;;;;;;;;;15.88;100.00;60892.56;4895909;28;19916;-91
2023/09/30 00:12:43;;;;;;;;;;;;;;;15.86;100.00;60892.56;4898155;28;19920;-90
2023/09/30 00:15:22;;;;;;;;;;;;;;;15.81;100.00;60892.56;4896565;28;19928;-90
2023/09/30 00:18:01;;;;;;;;;;;;;;;15.79;100.00;60892.56;4898345;28;20538;-91
2023/09/30 00:20:40;;;;;;;;;;;;;;;15.76;100.00;60892.56;4891192;28;19917;-91
2023/09/30 00:23:21;;;;;;;;;;;;;;;-145.06;100.00;60892.56;4898659;28;20217;-90
2023/09/30 00:26:00;;;;;;;;;;;;;;;-145.06;100.00;60892.56;4899096;28;20374;-92
2023/09/30 00:28:39;;;;;;;;;;;;;;;-145.06;100.00;60892.56;4897187;28;19916;-92
2023/09/30 00:31:18;;;;;;;;;;;;;;;-145.06;100.00;60892.56;4897951;28;19925;-90
2023/09/30 00:33:57;;;;;;;;;;;;;;;-145.06;100.00;60892.56;4895801;28;19920;-90
2023/09/30 00:36:36;;;;;;;;;;;;;;;-145.06;100.00;60892.56;4893424;28;19916;-91
2023/09/30 00:39:15;;;;;;;;;;;;;;;-145.06;100.00;60892.56;4897801;28;19999;-91
2023/09/30 00:41:54;;;;;;;;;;;;;;;-145.06;100.00;60892.56;4892356;28;19916;-91
2023/09/30 00:44:33;;;;;;;;;;;;;;;-145.06;100.00;60892.56;4886174;28;19917;-90
2023/09/30 00:47:14;;;;;;;;;;;;;;;-145.06;100.00;60892.56;4890606;28;19916;-92
2023/09/30 00:49:53;;;;;;;;;;;;;;;-145.06;100.00;60892.56;4890644;28;19917;-90
2023/09/30 00:52:33;;;;;;;;;;;;;;;-145.06;100.00;60892.56;4890840;28;20581;-91
2023/09/30 00:55:12;;;;;;;;;;;;;;;-145.06;100.00;60892.56;4895634;28;19920;-90
2023/09/30 00:57:51;;;;;;;;;;;;;;;-145.06;100.00;60892.56;4896586;28;19921;-90
2023/09/30 01:00:30;;;;;;;;;;;;;;;-145.06;100.00;60892.56;4892753;28;19916;-91
2023/09/30 01:03:09;;;;;;;;;;;;;;;-145.06;100.00;60892.56;4890044;28;20007;-91
2023/09/30 01:05:49;;;;;;;;;;;;;;;-145.06;100.00;60892.56;4892793;28;19921;-91
2023/09/30 01:08:28;;;;;;;;;;;;;;;-145.06;100.00;60892.56;4893432;28;19920;-91
2023/09/30 01:11:08;;;;;;;;;;;;;;;-145.06;100.00;60892.56;4897899;28;19920;-90
2023/09/30 01:13:49;;;;;;;;;;;;;;;-145.06;100.00;60892.56;4896219;28;20015;-91
2023/09/30 01:16:28;;;;;;;;;;;;;;;-145.06;100.00;60892.56;4895684;28;19924;-91
2023/09/30 01:19:07;;;;;;;;;;;;;;;-145.06;100.00;60892.56;4892643;28;19921;-90
2023/09/30 01:21:49;;;;;;;;;;;;;;;-145.06;100.00;60892.56;4897780;28;19920;-90
2023/09/30 01:24:28;;;;;;;;;;;;;;;-145.06;100.00;60892.56;4897053;28;19921;-91
2023/09/30 01:27:08;;;;;;;;;;;;;;;-145.06;100.00;60892.56;4891849;28;19920;-92
2023/09/30 01:29:47;;;;;;;;;;;;;;;-145.06;100.00;60892.56;4896786;28;19920;-92
2023/09/30 01:32:26;;;;;;;;;;;;;;;-145.06;100.00;60892.56;4893149;28;19920;-91
2023/09/30 01:35:05;;;;;;;;;;;;;;;-145.06;100.00;60892.56;4896123;28;19920;-90
2023/09/30 01:37:45;;;;;;;;;;;;;;;-145.06;100.00;60892.56;4904317;28;19916;-91
2023/09/30 01:40:24;;;;;;;;;;;;;;;-145.06;100.00;60892.56;4895273;28;19920;-91
2023/09/30 01:43:03;;;;;;;;;;;;;;;-145.06;100.00;60892.56;4897992;28;19916;-91
2023/09/30 01:45:44;;;;;;;;;;;;;;;-145.06;100.00;60892.56;4892878;28;19920;-90
2023/09/30 01:48:22;;;;;;;;;;;;;;;-145.06;100.00;60892.56;4895329;28;19920;-90
2023/09/30 01:51:02;;;;;;;;;;;;;;;-145.06;100.00;60892.56;4896437;28;19916;-91
2023/09/30 01:53:42;;;;;;;;;;;;;;;-145.06;100.00;60892.56;4886220;28;19920;-90
2023/09/30 01:56:21;;;;;;;;;;;;;;;-145.06;100.00;60892.56;4885793;28;19921;-90
2023/09/30 01:59:00;;;;;;;;;;;;;;;-145.06;100.00;60892.56;4896244;28;20042;-90
2023/09/30 02:01:39;;;;;;;;;;;;;;;-145.06;100.00;60892.56;4890843;28;19925;-90
2023/09/30 02:04:18;;;;;;;;;;;;;;;-145.06;100.00;60892.56;4895840;28;19924;-90
2023/09/30 02:06:57;;;;;;;;;;;;;;;-145.06;100.00;60892.56;4895059;28;20018;-90
2023/09/30 02:09:36;;;;;;;;;;;;;;;-145.06;100.00;60892.56;4894574;28;19917;-90
2023/09/30 02:12:14;;;;;;;;;;;;;;;-145.06;100.00;60892.56;4891972;28;19968;-92
2023/09/30 02:14:54;;;;;;;;;;;;;;;-145.06;100.00;60892.56;4889954;28;19920;-90
2023/09/30 02:17:33;;;;;;;;;;;;;;;-145.06;100.00;60892.56;4894468;28;19924;-91
2023/09/30 02:20:15;;;;;;;;;;;;;;;-145.06;100.00;60892.56;4894922;28;19920;-90
2023/09/30 02:22:54;;;;;;;;;;;;;;;-145.06;100.00;60892.56;4890742;28;19920;-90
2023/09/30 02:25:33;;;;;;;;;;;;;;;-145.06;100.00;60892.56;4896959;28;19916;-91
2023/09/30 02:28:12;;;;;;;;;;;;;;;-145.06;100.00;60892.56;4896761;28;19924;-90
2023/09/30 02:30:53;;;;;;;;;;;;;;;-145.06;100.00;60892.56;4896442;28;19912;-90
2023/09/30 02:33:31;;;;;;;;;;;;;;;-145.06;100.00;60892.56;4892920;28;20282;-89
2023/09/30 02:36:12;;;;;;;;;;;;;;;-145.06;100.00;60892.56;4892853;28;19920;-91
2023/09/30 02:38:51;;;;;;;;;;;;;;;-145.06;100.00;60892.56;4896865;28;20458;-91
2023/09/30 02:41:30;;;;;;;;;;;;;;;-145.06;100.00;60892.56;4889741;28;19916;-90
2023/09/30 02:44:09;;;;;;;;;;;;;;;-145.06;100.00;60892.56;4890668;28;20366;-90
2023/09/30 02:46:48;;;;;;;;;;;;;;;-145.06;100.00;60892.56;4895745;28;19925;-89
2023/09/30 02:49:27;;;;;;;;;;;;;;;-145.06;100.00;60892.56;4895845;28;19947;-91
2023/09/30 02:52:06;;;;;;;;;;;;;;;-145.06;100.00;60892.56;4887251;28;19920;-90
2023/09/30 02:54:45;;;;;;;;;;;;;;;-145.06;100.00;60892.56;4892339;28;20378;-90
2023/09/30 02:57:24;;;;;;;;;;;;;;;-145.06;100.00;60892.56;4891276;28;19952;-90
2023/09/30 03:03:04;;;;;;;;;;;;;;;-145.06;100.00;60892.56;4889141;28;19920;-91
2023/09/30 03:05:43;;;;;;;;;;;;;;;-145.06;100.00;60892.56;4897290;28;20217;-89
2023/09/30 03:08:22;;;;;;;;;;;;;;;-145.06;100.00;60892.56;4896803;28;19924;-90
2023/09/30 03:11:01;;;;;;;;;;;;;;;-145.06;100.00;60892.56;4893416;28;20275;-91
2023/09/30 03:13:42;;;;;;;;;;;;;;;-145.06;100.00;60892.56;4893838;28;19963;-90
2023/09/30 03:16:21;;;;;;;;;;;;;;;-145.06;100.00;60892.56;4896631;28;19920;-91
2023/09/30 03:19:00;;;;;;;;;;;;;;;-145.06;100.00;60892.56;4900008;28;19917;-92
2023/09/30 03:21:39;;;;;;;;;;;;;;;-145.06;100.00;60892.56;4899382;28;19920;-90
2023/09/30 03:24:18;;;;;;;;;;;;;;;-145.06;100.00;60892.56;4900450;28;19924;-90
2023/09/30 03:26:58;;;;;;;;;;;;;;;-145.06;100.00;60892.56;4898711;28;19920;-91
2023/09/30 03:29:38;;;;;;;;;;;;;;;-145.06;100.00;60892.56;4900077;28;19948;-92
2023/09/30 03:32:17;;;;;;;;;;;;;;;-145.06;100.00;60892.56;4898862;28;19916;-91
2023/09/30 03:34:58;;;;;;;;;;;;;;;-145.06;100.00;60892.56;4898790;28;19924;-90
2023/09/30 03:37:38;;;;;;;;;;;;;;;-145.06;100.00;60892.56;4895235;28;19917;-91
2023/09/30 03:40:19;;;;;;;;;;;;;;;-145.06;100.00;60892.56;4896741;28;19916;-92
2023/09/30 03:42:59;;;;;;;;;;;;;;;-145.06;100.00;60892.56;4896643;28;20385;-91
2023/09/30 03:45:39;;;;;;;;;;;;;;;-145.06;100.00;60892.56;4899065;28;19920;-89
2023/09/30 03:48:18;;;;;;;;;;;;;;;-145.06;100.00;60892.56;4898754;28;19951;-90
2023/09/30 03:50:57;;;;;;;;;;;;;;;-145.06;100.00;60892.56;4898443;28;19973;-90
2023/09/30 03:53:36;;;;;;;;;;;;;;;-145.06;100.00;60892.56;4897024;28;20375;-90
2023/09/30 03:56:15;;;;;;;;;;;;;;;-145.06;100.00;60892.56;4900609;28;19913;-91
2023/09/30 03:58:54;;;;;;;;;;;;;;;-145.06;100.00;60892.56;4899599;28;19921;-91
2023/09/30 04:01:33;;;;;;;;;;;;;;;-145.06;100.00;60892.56;4900122;28;19912;-92
2023/09/30 04:04:12;;;;;;;;;;;;;;;-145.06;100.00;60892.56;4887932;28;19916;-90
2023/09/30 04:06:51;;;;;;;;;;;;;;;-145.06;100.00;60892.56;4898954;28;19916;-89
2023/09/30 04:09:31;;;;;;;;;;;;;;;-145.06;100.00;60892.56;4897804;28;19916;-91
2023/09/30 04:12:11;;;;;;;;;;;;;;;14.57;100.00;60892.56;4895881;28;19975;-91
2023/09/30 04:14:50;;;;;;;;;;;;;;;14.52;100.00;60892.56;4897286;28;19924;-89
2023/09/30 04:17:29;;;;;;;;;;;;;;;14.49;100.00;60892.56;4892688;28;19912;-90
2023/09/30 04:20:15;;;;;;;;;;;;;;;14.47;100.00;60892.56;4898021;28;19920;-90
2023/09/30 04:22:57;;;;;;;;;;;;;;;14.44;100.00;60892.56;4899594;28;19967;-92
2023/09/30 04:25:35;;;;;;;;;;;;;;;14.41;100.00;60892.56;4893262;28;19948;-91
2023/09/30 04:28:15;;;;;;;;;;;;;;;14.42;100.00;60892.56;4897130;28;19920;-91
2023/09/30 04:30:54;;;;;;;;;;;;;;;14.38;100.00;60892.56;4898550;28;20275;-90
2023/09/30 04:33:35;;;;;;;;;;;;;;;-145.06;100.00;60892.56;4893323;28;19924;-91
2023/09/30 04:36:14;;;;;;;;;;;;;;;21.08;100.00;60892.56;4894458;28;19920;-91
2023/09/30 04:38:53;;;;;;;;;;;;;;;14.58;100.00;60892.56;4897483;28;19924;-90
2023/09/30 04:41:32;;;;;;;;;;;;;;;14.32;100.00;60892.56;4887386;28;20019;-90
2023/09/30 04:44:11;;;;;;;;;;;;;;;14.42;100.00;60892.56;4894754;28;19916;-91
2023/09/30 04:46:50;;;;;;;;;;;;;;;-145.06;100.00;60892.56;4892761;28;19947;-90
2023/09/30 04:49:29;;;;;;;;;;;;;;;14.42;100.00;60892.56;4895860;28;20255;-91
2023/09/30 04:52:09;;;;;;;;;;;;;;;-145.06;100.00;60892.56;4891526;28;20283;-90
2023/09/30 04:54:51;;;;;;;;;;;;;;;-145.06;100.00;60892.56;4897757;28;19925;-91
2023/09/30 04:57:31;;;;;;;;;;;;;;;-145.06;100.00;60892.56;4895381;28;20401;-91
2023/09/30 05:00:14;;;;;;;;;;;;;;;-145.06;100.00;60892.56;4885934;28;20389;-90
2023/09/30 05:02:55;;;;;;;;;;;;;;;-145.06;100.00;60892.56;4895047;28;19925;-91
2023/09/30 05:05:35;;;;;;;;;;;;;;;-145.06;100.00;60892.56;4897936;28;19916;-91
2023/09/30 05:08:16;;;;;;;;;;;;;;;-145.06;100.00;60892.56;4897898;28;19916;-93
2023/09/30 05:10:55;;;;;;;;;;;;;;;-145.06;100.00;60892.56;4890529;28;19913;-90
2023/09/30 05:13:34;;;;;;;;;;;;;;;-145.06;100.00;60892.56;4897039;28;20408;-90
2023/09/30 05:16:14;;;;;;;;;;;;;;;-145.06;100.00;60892.56;4896382;28;20170;-91
2023/09/30 05:18:53;;;;;;;;;;;;;;;-145.06;100.00;60892.56;4896598;28;19913;-90
2023/09/30 05:21:32;;;;;;;;;;;;;;;-145.06;100.00;60892.56;4896139;28;19917;-91
2023/09/30 05:24:11;;;;;;;;;;;;;;;-145.06;100.00;60892.56;4896087;28;19916;-90
2023/09/30 05:26:50;;;;;;;;;;;;;;;-145.06;100.00;60892.56;4897113;28;20007;-91
2023/09/30 05:29:29;;;;;;;;;;;;;;;-145.06;100.00;60892.56;4895798;28;19924;-90
2023/09/30 05:32:08;;;;;;;;;;;;;;;-145.06;100.00;60892.56;4894655;28;19975;-90
2023/09/30 05:34:50;;;;;;;;;;;;;;;-145.06;100.00;60892.56;4897297;28;19924;-91
2023/09/30 05:37:28;;;;;;;;;;;;;;;-145.06;100.00;60892.56;4894539;28;19916;-92
2023/09/30 05:40:16;;;;;;;;;;;;;;;-145.06;100.00;60892.56;4891921;28;19920;-90
2023/09/30 05:42:59;;;;;;;;;;;;;;;-145.06;100.00;60892.56;4887491;28;19912;-90
2023/09/30 05:45:38;;;;;;;;;;;;;;;-145.06;100.00;60892.56;4898345;28;19916;-91
2023/09/30 05:48:16;;;;;;;;;;;;;;;-145.06;100.00;60892.56;4896866;28;19984;-90
2023/09/30 05:50:55;;;;;;;;;;;;;;;-145.06;100.00;60892.56;4889321;28;19912;-90
2023/09/30 05:53:36;;;;;;;;;;;;;;;-145.06;100.00;60892.56;4894887;28;19916;-90
2023/09/30 05:56:15;;;;;;;;;;;;;;;-145.06;100.00;60892.56;4896246;28;19917;-91
2023/09/30 05:58:54;;;;;;;;;;;;;;;-145.06;100.00;60892.56;4898173;28;19920;-91
2023/09/30 06:01:34;;;;;;;;;;;;;;;-145.06;100.00;60892.56;4902152;28;19916;-91
2023/09/30 06:04:13;;;;;;;;;;;;;;;-145.06;100.00;60892.56;4899099;28;19912;-90
2023/09/30 06:06:53;;;;;;;;;;;;;;;-145.06;100.00;60892.56;4899526;28;19916;-89
2023/09/30 06:09:32;;;;;;;;;;;;;;;-145.06;100.00;60892.56;4901080;28;19961;-90
2023/09/30 06:12:11;;;;;;;;;;;;;;;-145.06;100.00;60892.56;4901991;28;19912;-90
2023/09/30 06:14:53;;;;;;;;;;;;;;;-145.06;100.00;60892.56;4901597;28;19920;-91
2023/09/30 06:17:33;;;;;;;;;;;;;;;-145.06;100.00;60892.56;4902456;28;19983;-89
2023/09/30 06:20:16;;;;;;;;;;;;;;;-145.06;100.00;60892.56;4899798;28;19913;-90
2023/09/30 06:22:55;;;;;;;;;;;;;;;-145.06;100.00;60892.56;4893951;28;19916;-90
2023/09/30 06:25:35;;;;;;;;;;;;;;;-145.06;100.00;60892.56;4900075;28;19917;-92
2023/09/30 06:28:14;;;;;;;;;;;;;;;-145.06;100.00;60892.56;4902958;28;19916;-89
2023/09/30 06:30:53;;;;;;;;;;;;;;;-145.06;100.00;60892.56;4902201;28;19921;-89
2023/09/30 06:33:32;;;;;;;;;;;;;;;-145.06;100.00;60892.56;4902024;28;19921;-91
2023/09/30 06:36:13;;;;;;;;;;;;;;;-145.06;100.00;60892.56;4896568;28;20007;-90
2023/09/30 06:38:52;;;;;;;;;;;;;;;-145.06;100.00;60892.56;4902265;28;19916;-91
2023/09/30 06:41:31;;;;;;;;;;;;;;;-145.06;100.00;60892.56;4898436;28;19913;-90
2023/09/30 06:44:10;;;;;;;;;;;;;;;-145.06;100.00;60892.56;4901453;28;19964;-90
2023/09/30 06:46:50;;;;;;;;;;;;;;;-145.06;100.00;60892.56;4896179;28;19928;-92
2023/09/30 06:49:29;;;;;;;;;;;;;;;-145.06;100.00;60892.56;4902203;28;20211;-90
2023/09/30 06:52:09;;;;;;;;;;;;;;;-145.06;100.00;60892.56;4893872;28;20290;-91
2023/09/30 06:54:48;;;;;;;;;;;;;;;-145.06;100.00;60892.56;4905098;28;19920;-91
2023/09/30 06:57:27;;;;;;;;;;;;;;;-145.06;100.00;60892.56;4904801;28;20373;-92
2023/09/30 07:00:12;;;;;;;;;;;;;;;-145.06;100.00;60892.56;4902415;28;19960;-89
2023/09/30 07:02:51;;;;;;;;;;;;;;;-145.06;100.00;60892.56;4903965;28;19956;-91
2023/09/30 07:05:30;;;;;;;;;;;;;;;-145.06;100.00;60892.56;4895953;28;20002;-91
2023/09/30 07:08:09;;;;;;;;;;;;;;;-145.06;100.00;60892.56;4903593;28;19924;-90
2023/09/30 07:10:52;;;;;;;;;;;;;;;-145.06;100.00;60892.56;4905736;28;19916;-90
2023/09/30 07:13:34;;;;;;;;;;;;;;;-145.06;100.00;60892.56;4897725;28;19921;-91
2023/09/30 07:16:13;;;;;;;;;;;;;;;-145.06;100.00;60892.56;4896942;28;19916;-90
2023/09/30 07:18:52;;;;;;;;;;;;;;;-145.06;100.00;60892.56;4898091;28;19917;-90
2023/09/30 07:21:31;;;;;;;;;;;;;;;-145.06;100.00;60892.56;4904458;28;19913;-90
2023/09/30 07:24:10;;;;;;;;;;;;;;;-145.06;100.00;60892.56;4901097;28;19916;-91
2023/09/30 07:26:49;;;;;;;;;;;;;;;-145.06;100.00;60892.56;4901746;28;19921;-89
2023/09/30 07:29:28;;;;;;;;;;;;;;;-145.06;100.00;60892.56;4904661;28;19916;-91
2023/09/30 07:32:07;;;;;;;;;;;;;;;-145.06;100.00;60892.56;4898685;28;19951;-92
2023/09/30 07:34:46;;;;;;;;;;;;;;;-145.06;100.00;60892.56;4903994;28;19920;-91
2023/09/30 07:37:28;;;;;;;;;;;;;;;-145.06;100.00;60892.56;4896320;28;19920;-91
2023/09/30 07:40:08;;;;;;;;;;;;;;;-145.06;100.00;60892.56;4902844;28;20351;-91
2023/09/30 07:42:47;;;;;;;;;;;;;;;-145.06;100.00;60892.56;4901854;28;20501;-91
2023/09/30 07:45:59;;;;;;;;;;;;;;;14.28;100.00;60892.56;4900889;28;19921;-92
2023/09/30 07:48:39;;;;;;;;;;;;;;;14.36;100.00;60892.56;4903536;28;20019;-91
2023/09/30 07:51:18;;;;;;;;;;;;;;;14.42;100.00;60892.56;4890209;28;19921;-90
2023/09/30 07:53:59;;;;;;;;;;;;;;;14.49;100.00;60892.56;4912173;28;19956;-91
2023/09/30 07:56:47;;;;;;;;;;;;;;;-145.06;100.00;60892.56;4910238;28;19920;-91
2023/09/30 07:59:26;;;;;;;;;;;;;;;-145.06;100.00;60892.56;4901686;28;19951;-90
2023/09/30 08:02:08;;;;;;;;;;;;;;;-145.06;100.00;60892.56;4891318;28;20315;-91
2023/09/30 08:08:08;;;;;;;;;;;;;;;-145.06;100.00;60892.56;4894736;28;19920;-90
2023/09/30 08:10:48;;;;;;;;;;;;;;;-145.06;100.00;60892.56;4896100;28;19920;-90
2023/09/30 08:13:29;;;;;;;;;;;;;;;-145.06;100.00;60892.56;4894178;28;20015;-90
2023/09/30 08:16:08;;;;;;;;;;;;;;;-145.06;100.00;60892.56;4900476;28;19921;-91
2023/09/30 08:21:46;;;;;;;;;;;;;;;-145.06;100.00;60892.56;4892008;28;19917;-91
2023/09/30 08:24:25;;;;;;;;;;;;;;;-145.06;100.00;60892.56;4900173;28;19947;-91
2023/09/30 08:27:06;;;;;;;;;;;;;;;-145.06;100.00;60892.56;4901331;28;19917;-91
2023/09/30 08:29:46;;;;;;;;;;;;;;;-145.06;100.00;60892.56;4898654;28;19916;-92
2023/09/30 08:32:25;;;;;;;;;;;;;;;15.88;100.00;60892.56;4897852;28;19917;-91
2023/09/30 08:35:04;;;;;;;;;;;;;;;15.66;100.00;60892.56;4894023;28;19921;-91
2023/09/30 08:37:43;;;;;;;;;;;;;;;15.73;100.00;60892.56;4896616;28;19916;-90
2023/09/30 08:40:23;;;;;;;;;;;;;;;15.79;100.00;60892.56;4899138;28;19917;-91
2023/09/30 08:43:04;;;;;;;;;;;;;;;15.86;100.00;60892.56;4900910;28;19916;-92
2023/09/30 08:45:44;;;;;;;;;;;;;;;-145.06;100.00;60892.56;4887438;28;20174;-90
2023/09/30 08:48:26;;;;;;;;;;;;;;;-145.06;100.00;60892.56;4897977;28;19916;-92
2023/09/30 08:51:11;;;;;;;;;;;;;;;-145.06;100.00;60892.56;4901924;28;19955;-91
2023/09/30 08:53:50;;;;;;;;;;;;;;;-145.06;100.00;60892.56;4901594;28;19924;-92
2023/09/30 08:56:32;;;;;;;;;;;;;;;-145.06;100.00;60892.56;4900989;28;19912;-90
2023/09/30 08:59:29;;;;;;;;;;;;;;;-145.06;100.00;60892.56;4902259;28;19912;-92
2023/09/30 09:02:08;;;;;;;;;;;;;;;-145.06;100.00;60892.56;4894803;28;19917;-92
2023/09/30 09:04:49;;;;;;;;;;;;;;;-145.06;100.00;60892.56;4902445;28;19920;-92
2023/09/30 09:07:28;;;;;;;;;;;;;;;-145.06;100.00;60892.56;4897335;28;19917;-92
2023/09/30 09:10:08;;;;;;;;;;;;;;;-145.06;100.00;60892.56;4899761;28;19999;-92
2023/09/30 09:12:54;;;;;;;;;;;;;;;-145.06;100.00;60892.56;4896633;28;19913;-93
2023/09/30 09:15:34;;;;;;;;;;;;;;;-145.06;100.00;60892.56;4894438;28;19925;-93
2023/09/30 09:18:30;;;;;;;;;;;;;;;-145.06;100.00;60892.56;4900208;28;19912;-93
2023/09/30 09:21:17;;;;;;;;;;;;;;;-145.06;100.00;60892.56;4896451;28;19971;-92
2023/09/30 09:23:57;;;;;;;;;;;;;;;-145.06;100.00;60892.56;4896235;28;19939;-92
2023/09/30 09:26:38;;;;;;;;;;;;;;;-145.06;100.00;60892.56;4898857;28;19948;-92
2023/09/30 09:29:24;;;;;;;;;;;;;;;-145.06;100.00;60892.56;4895689;28;19917;-91
2023/09/30 09:32:19;;;;;;;;;;;;;;;-145.06;100.00;60892.56;4892242;28;19916;-91
2023/09/30 09:35:01;;;;;;;;;;;;;;;-145.06;100.00;60892.56;4894996;28;19916;-93
2023/09/30 09:37:40;;;;;;;;;;;;;;;-145.06;100.00;60892.56;4901197;28;19913;-92
2023/09/30 09:40:23;;;;;;;;;;;;;;;-145.06;100.00;60892.56;4900549;28;20007;-93
2023/09/30 09:43:05;;;;;;;;;;;;;;;-145.06;100.00;60892.56;4890157;28;19913;-92
2023/09/30 09:45:43;;;;;;;;;;;;;;;-145.06;100.00;60892.56;4889305;28;19951;-92
2023/09/30 09:48:23;;;;;;;;;;;;;;;-145.06;100.00;60892.56;4894497;28;19912;-92
2023/09/30 09:51:03;;;;;;;;;;;;;;;-145.06;100.00;60892.56;4901224;28;19912;-92
2023/09/30 09:53:42;;;;;;;;;;;;;;;-145.06;100.00;60892.56;4900371;28;19916;-92
2023/09/30 09:56:22;;;;;;;;;;;;;;;-145.06;100.00;60892.56;4896443;28;19913;-92
2023/09/30 09:59:04;;;;;;;;;;;;;;;-145.06;100.00;60892.56;4901656;28;20003;-93
2023/09/30 10:01:45;;;;;;;;;;;;;;;-145.06;100.00;60892.56;4892177;28;19917;-92
2023/09/30 10:04:24;;;;;;;;;;;;;;;-145.06;100.00;60892.56;4898222;28;20015;-92
2023/09/30 10:07:03;;;;;;;;;;;;;;;-145.06;100.00;60892.56;4901565;28;19912;-92
2023/09/30 10:09:57;;;;;;;;;;;;;;;;;;;;;
2023/09/30 10:12:38;;;;;;;;;;;;;;;-145.06;100.00;60892.56;4891182;28;19913;-92
2023/09/30 10:15:25;;;;;;;;;;;;;;;18.19;100.00;60892.56;4895990;28;19917;-92
2023/09/30 10:18:11;;;;;;;;;;;;;;;18.28;100.00;60892.56;4900319;28;19952;-92
2023/09/30 10:20:51;;;;;;;;;;;;;;;-145.06;100.00;60892.56;4900929;28;19913;-93
2023/09/30 10:23:33;;;;;;;;;;;;;;;18.47;100.00;60892.56;4889628;28;19913;-92
2023/09/30 10:26:51;;;;;;;;;;;;;;;-145.06;100.00;60892.56;4890455;28;19913;-92
2023/09/30 10:29:39;;;;;;;;;;;;;;;-145.06;100.00;60892.56;4890884;28;20267;-92
2023/09/30 10:32:17;;;;;;;;;;;;;;;-145.06;100.00;60892.56;4887083;28;19917;-92
2023/09/30 10:34:57;;;;;;;;;;;;;;;-145.06;100.00;60892.56;4897693;28;20248;-92
2023/09/30 10:37:36;;;;;;;;;;;;;;;-145.06;100.00;60892.56;4898378;28;19912;-92
2023/09/30 10:40:26;;;;;;;;;;;;;;;-145.06;100.00;60892.56;4900785;28;19913;-93
2023/09/30 10:43:28;;;;;;;;;;;;;;;-145.06;100.00;60892.56;4900536;28;19912;-93
2023/09/30 10:46:29;;;;;;;;;;;;;;;-145.06;100.00;60892.56;4903417;28;20259;-92
2023/09/30 10:49:17;;;;;;;;;;;;;;;-145.06;100.00;60892.56;4902311;28;20113;-92
2023/09/30 10:52:02;;;;;;;;;;;;;;;-145.06;100.00;60892.56;4893564;28;19912;-93
2023/09/30 10:54:42;;;;;;;;;;;;;;;19.50;100.00;60892.56;4902218;28;19917;-91
2023/09/30 10:57:28;;;;;;;;;;;;;;;19.59;100.00;60892.56;4900542;28;19951;-92
2023/09/30 11:00:08;;;;;;;;;;;;;;;19.71;100.00;60892.56;4896779;28;19955;-91
2023/09/30 11:02:54;;;;;;;;;;;;;;;-145.06;100.00;60892.56;4895896;28;19955;-92
2023/09/30 11:05:34;;;;;;;;;;;;;;;-145.06;100.00;60892.56;4901194;28;19916;-93
2023/09/30 11:08:15;;;;;;;;;;;;;;;-145.06;100.00;60892.56;4890514;28;19924;-92
2023/09/30 11:10:54;;;;;;;;;;;;;;;-145.06;100.00;60892.56;4899077;28;20102;-92
2023/09/30 11:33:12;;;;;;;;;;;;;;;;;;;;;
2023/09/30 11:52:58;;;;;;;;;;;;;;;-145.06;100.00;60892.56;5257076;22;19984;-92
2023/09/30 12:06:16;;;;;;;;;;;;;;;-145.06;100.00;60892.56;4858542;28;19973;-93
2023/09/30 12:09:14;;;;;;;;;;;;;;;;;;;;;
2023/09/30 12:12:24;;;;;;;;;;;;;;;-145.06;100.00;60892.56;4886526;28;20000;-92
2023/09/30 12:15:03;;;;;;;;;;;;;;;-145.06;100.00;60892.56;4868912;28;19917;-91
2023/09/30 12:17:42;;;;;;;;;;;;;;;-145.06;100.00;60892.56;4867042;28;19917;-92
2023/09/30 12:20:21;;;;;;;;;;;;;;;-145.06;100.00;60892.56;4866081;28;19913;-91
2023/09/30 12:23:00;;;;;;;;;;;;;;;-145.06;100.00;60892.56;4868797;28;19916;-90
2023/09/30 12:25:39;;;;;;;;;;;;;;;-145.06;100.00;60892.56;4885439;28;19913;-92
2023/09/30 12:28:18;;;;;;;;;;;;;;;-145.06;100.00;60892.56;4869048;28;19921;-91
2023/09/30 12:30:58;;;;;;;;;;;;;;;-145.06;100.00;60892.56;4863401;28;19916;-91
2023/09/30 12:33:43;;;;;;;;;;;;;;;-145.06;100.00;60892.56;4862722;28;19912;-92
2023/09/30 12:36:21;;;;;;;;;;;;;;;-145.06;100.00;60892.56;4868921;28;19961;-91
2023/09/30 12:39:01;;;;;;;;;;;;;;;-145.06;100.00;60892.56;4885365;28;20635;-91
2023/09/30 12:41:43;;;;;;;;;;;;;;;-145.06;100.00;60892.56;4868302;28;19913;-92
2023/09/30 12:44:23;;;;;;;;;;;;;;;-145.06;100.00;60892.56;4873011;28;20236;-90
2023/09/30 12:47:02;;;;;;;;;;;;;;;-145.06;100.00;60892.56;4874948;28;19932;-91
2023/09/30 12:49:41;;;;;;;;;;;;;;;-145.06;100.00;60892.56;4866976;28;19937;-93
2023/09/30 12:52:21;;;;;;;;;;;;;;;-145.06;100.00;60892.56;4864600;28;19921;-90
2023/09/30 12:55:28;;;;;;;;;;;;;;;;;;;;;
2023/09/30 12:58:27;;;;;;;;;;;;;;;-145.06;100.00;60892.56;4888871;28;20434;-90
2023/09/30 13:01:07;;;;;;;;;;;;;;;-145.06;100.00;60892.56;4861789;28;19913;-91
2023/09/30 13:03:47;;;;;;;;;;;;;;;-145.06;100.00;60892.56;4861878;28;19917;-90
2023/09/30 13:06:26;;;;;;;;;;;;;;;-145.06;100.00;60892.56;4870359;28;19917;-92
2023/09/30 13:09:05;;;;;;;;;;;;;;;-145.06;100.00;60892.56;4868080;28;19912;-91
2023/09/30 13:11:44;;;;;;;;;;;;;;;-145.06;100.00;60892.56;4868196;28;20430;-92
2023/09/30 13:14:40;;;;;;;;;;;;;;;-145.06;100.00;60892.56;4861449;28;19951;-91
2023/09/30 13:17:19;;;;;;;;;;;;;;;-145.06;100.00;60892.56;4858064;28;19960;-90
2023/09/30 13:20:17;;;;;;;;;;;;;;;-145.06;100.00;60892.56;4868994;28;20626;-90
2023/09/30 13:22:57;;;;;;;;;;;;;;;-145.06;100.00;60892.56;4867740;28;19960;-90
2023/09/30 13:25:36;;;;;;;;;;;;;;;-145.06;100.00;60892.56;4872328;28;19916;-91
2023/09/30 13:28:15;;;;;;;;;;;;;;;-145.06;100.00;60892.56;4868169;28;20272;-92
2023/09/30 13:30:54;;;;;;;;;;;;;;;-145.06;100.00;60892.56;4870902;28;19959;-90
2023/09/30 13:33:33;;;;;;;;;;;;;;;-145.06;100.00;60892.56;4869066;28;19948;-91
2023/09/30 13:36:12;;;;;;;;;;;;;;;-145.06;100.00;60892.56;4863053;28;19916;-91
2023/09/30 13:38:51;;;;;;;;;;;;;;;-145.06;100.00;60892.56;4870493;28;19916;-91
2023/09/30 13:41:30;;;;;;;;;;;;;;;-145.06;100.00;60892.56;4868325;28;19917;-91
2023/09/30 13:44:10;;;;;;;;;;;;;;;-145.06;100.00;60892.56;4890352;28;20145;-90
2023/09/30 13:50:12;;;;;;;;;;;;;;;-145.06;100.00;60892.56;4877226;28;19940;-90
2023/09/30 13:52:52;;;;;;;;;;;;;;;-145.06;100.00;60892.56;4852852;28;20510;-91
2023/09/30 13:55:33;;;;;;;;;;;;;;;-145.06;100.00;60892.56;4867643;28;20181;-90
2023/09/30 13:58:12;;;;;;;;;;;;;;;-145.06;100.00;60892.56;4865623;28;20614;-91
2023/09/30 14:00:56;;;;;;;;;;;;;;;-145.06;100.00;60892.56;4880932;28;19913;-91
2023/09/30 14:03:35;;;;;;;;;;;;;;;-145.06;100.00;60892.56;4872177;28;19913;-92
2023/09/30 14:06:14;;;;;;;;;;;;;;;-145.06;100.00;60892.56;4865516;28;19921;-91
2023/09/30 14:08:53;;;;;;;;;;;;;;;-145.06;100.00;60892.56;4873320;28;19952;-91
2023/09/30 14:11:32;;;;;;;;;;;;;;;-145.06;100.00;60892.56;4845962;28;19928;-92
2023/09/30 14:14:11;;;;;;;;;;;;;;;-145.06;100.00;60892.56;4866060;28;20259;-91
2023/09/30 14:16:50;;;;;;;;;;;;;;;-145.06;100.00;60892.56;4864360;28;19921;-91
2023/09/30 14:19:29;;;;;;;;;;;;;;;-145.06;100.00;60892.56;4873287;28;19956;-92
2023/09/30 14:22:09;;;;;;;;;;;;;;;-145.06;100.00;60892.56;4866473;28;19913;-92
2023/09/30 14:24:48;;;;;;;;;;;;;;;-145.06;100.00;60892.56;4871067;28;19913;-92
2023/09/30 14:27:27;;;;;;;;;;;;;;;-145.06;100.00;60892.56;4865429;28;19952;-92
2023/09/30 14:30:06;;;;;;;;;;;;;;;-145.06;100.00;60892.56;4866118;28;19920;-92
2023/09/30 14:32:45;;;;;;;;;;;;;;;-145.06;100.00;60892.56;4865850;28;20271;-91